Tiempo atmosférico en la estación meteorológica de Villalón De Campos, Valladolid (763 m.)



Fecha
DESCASC
Temp. máxima en grados centígrados (hora)
DESCASC
Temp. mínima en grados centígrados (hora)
DESCASC
Temp. media en grados centígrados
DESCASC
Racha de viento máxima en m/sg (hora)
DESCASC
Velocidad máxima media en intervalos de 10 minutos(hora)
DESCASC
Precipitaciones diarias en mm
DESCASC
Precipitaciones de 00:00 a 06:00 en mm
DESCASC
Precipitaciones de 06:00 a 12:00 en mm
DESCASC
Precipitaciones de 12:00 a 18:00 en mm
DESCASC
Precipitaciones de 18:00 a 24:00 en mm
DESCASC
22-11-2020 16.3 (17:00) -1.5 (07:50) 7.4 2.5 (12:50) 1.11 (16:00) 0 0 0 0 0
21-11-2020 15.3 (16:10) 0.4 (08:00) 7.9 5.56 (14:10) 3.06 (01:10) 0 0 0 0 0
20-11-2020 12 (16:10) 2.7 (08:30) 7.4 9.44 (13:30) 5.28 (13:30) 0 0 0 0 0
19-11-2020 16.9 (16:20) 4.6 (00:00) 10.7 7.22 (18:30) 3.33 (18:30) 0 0 0 0 0
18-11-2020 18.5 (16:40) 3.3 (00:00) 10.9 2.78 (07:20) 1.39 (07:20) 0 0 0 0 0
17-11-2020 17.9 (15:50) 1.9 (00:00) 9.9 2.78 (13:30) 1.39 (11:30) 0 0 0 0 0
16-11-2020 15.5 (12:30) 5.2 (00:00) 10.3 5.28 (08:10) 3.61 (08:10) 0 0 0 0 0
15-11-2020 15.6 (13:30) 10.5 (00:00) 13.1 16.67 (13:10) 11.94 (13:00) 0 0 0 0 0
14-11-2020 13.8 (15:20) 2.7 (00:00) 8.3 7.22 (23:10) 5 (23:00) 0.2 0 0 0.2 0
13-11-2020 11.1 (16:00) 4 (00:00) 7.6 3.89 (16:30) 2.78 (16:30) 0 0 0 0 0
12-11-2020 13.2 (16:00) 4.8 (00:00) 9 3.06 (15:00) 1.67 (15:00) 0 0 0 0 0
11-11-2020 11.2 (15:30) 4.8 (00:00) 8 4.72 (18:00) 3.33 (14:40) 0 0 0 0 0
10-11-2020 9.1 (15:10) 4.4 (00:00) 6.8 3.61 (12:10) 2.22 (12:10) 0.2 0 0 0.2 0
09-11-2020 14.3 (15:30) 5.7 (00:00) 10 8.06 (11:10) 5.56 (11:50) 0.4 0.2 0 0.2 0
08-11-2020 14.1 (13:10) 6.3 (00:00) 10.2 10.56 (14:00) 6.39 (14:00) 5.8 0.2 0 1.2 4.4
07-11-2020 15.7 (16:20) 8.3 (00:00) 12 12.22 (11:10) 8.61 (15:10) 1.6 0.6 1 0 0
06-11-2020 15.3 (16:10) 8.3 (00:00) 11.8 13.89 (20:50) 7.5 (20:50) 14.8 0 0 0 14.8
05-11-2020 12.6 (15:50) 5 (00:00) 8.8 14.72 (01:40) 7.22 (12:20) 1 0 0 0 1
04-11-2020 9.5 (15:00) 3.4 (00:00) 6.5 15 (21:40) 8.33 (21:20) 0.4 0 0 0 0.4
03-11-2020 14.6 (15:00) 4.3 (00:00) 9.5 9.44 (16:20) 6.39 (01:20) 0 0 0 0 0
02-11-2020 19.8 (14:50) 10.3 (00:00) 15 9.17 (05:10) 6.39 (05:10) 0 0 0 0 0
01-11-2020 17.8 (15:20) 7.1 (00:00) 12.4 6.94 (15:10) 4.44 (16:50) 0 0 0 0 0
31-10-2020 18 (16:00) 2.7 (00:00) 10.4 6.67 (16:10) 4.44 (16:00) 0 0 0 0 0
30-10-2020 20 (16:40) 2 (00:00) 11 5 (14:20) 3.33 (14:20) 0 0 0 0 0
29-10-2020 15.7 (16:00) 2.4 (00:00) 9 5 (14:40) 2.78 (13:10) 0 0 0 0 0
28-10-2020 16.9 (16:20) 5.1 (00:00) 11 11.39 (00:10) 7.5 (01:50) 0.2 0.2 0 0 0
27-10-2020 12.3 (15:30) 4.6 (00:00) 8.5 12.78 (10:10) 8.61 (15:50) 0.8 0 0 0.8 0

Gráficas

Temp. máximas Temp. mínimas Temp. medias Precipitaciones Rachas de viento máximas Velocidades máximas media en intervalos de 10 minutos

Datos horarios

Fecha y hora oficial Temperatura (ºC) Velocidad del viento (km/h) Dirección del viento Racha (km/h) Dirección de racha Precipitación (mm) Presión (hPa) Tendencia (hPa) Humedad (%)
2020-11-25 23:00:00 7.5 8 Este 17 Este 0 -- -- 86
2020-11-25 22:00:00 7.9 8 Este 19 Este 0 -- -- 84
2020-11-25 21:00:00 7.9 6 Este 12 Este 0 -- -- 85
2020-11-25 20:00:00 7.9 5 Este 9 Este 0 -- -- 86
2020-11-25 19:00:00 7.8 4 Este 8 Nordeste 0 -- -- 90
2020-11-25 18:00:00 7.7 5 Nordeste 16 Nordeste 0 -- -- 91
2020-11-25 17:00:00 7.9 9 Norte 17 Nordeste 0.2 -- -- 93
2020-11-25 16:00:00 8.1 8 Norte 13 Norte 0 -- -- 92
2020-11-25 15:00:00 8.5 5 Norte 8 Norte 0.2 -- -- 87
2020-11-25 14:00:00 8.9 2 Sur 10 Este 0.2 -- -- 85
2020-11-25 13:00:00 -- -- -- -- -- -- -- -- --
2020-11-25 12:00:00 7 6 Este 12 Este 0 -- -- 89
2020-11-25 11:00:00 5.1 5 Este 9 Este 0 -- -- 94
2020-11-25 10:00:00 4 2 Este 8 Este 0 -- -- 99
2020-11-25 09:00:00 3.3 5 Este 8 Este 0 -- -- 100
2020-11-25 08:00:00 2.7 4 Este 8 Este 0 -- -- 100
2020-11-25 07:00:00 1.9 5 Este 8 Este 0 -- -- 100
2020-11-25 06:00:00 1.2 3 Este 6 Este 0 -- -- 100
2020-11-25 05:00:00 -0.2 2 Nordeste 5 Este 0 -- -- 100
2020-11-25 04:00:00 0.4 0 Calma 5 Sudeste 0 -- -- 100
2020-11-25 03:00:00 0.1 0 Calma 0 Calma 0 -- -- 100
2020-11-25 02:00:00 1.9 3 Este 9 Sur 0 -- -- 99
2020-11-25 01:00:00 3.4 5 Sur 11 Sudoeste 0 -- -- 99
2020-11-25 00:00:00 3.7 8 Sudoeste 15 Sur 0 -- -- 98
2020-11-24 23:00:00 3.7 7 Sudoeste 13 Sudoeste 0 -- -- 99
2020-11-24 22:00:00 4.8 9 Sudoeste 13 Sudoeste 0 -- -- 97
2020-11-24 21:00:00 4.6 6 Sudoeste 11 Sudoeste 0 -- -- 97
2020-11-24 20:00:00 5.7 6 Sudoeste 13 Sudoeste 0 -- -- 94
2020-11-24 19:00:00 7.4 6 Sur 15 Sudoeste 0 -- -- 89
2020-11-24 18:00:00 8.2 9 Sudoeste 17 Sur 0 -- -- 87
2020-11-24 17:00:00 10.1 14 Sudoeste 28 Sudoeste 0 -- -- 81
2020-11-24 16:00:00 11.6 17 Sudoeste 22 Sudoeste 0 -- -- 76
2020-11-24 15:00:00 10.8 15 Sudoeste 24 Oeste 0 -- -- 77
2020-11-24 14:00:00 10.4 12 Sudoeste 22 Sudoeste 0 -- -- 78
2020-11-24 13:00:00 9.6 14 Sudoeste 19 Sudoeste 0 -- -- 78
2020-11-24 12:00:00 9.2 3 Sur 8 Sur 0 -- -- 73
2020-11-24 11:00:00 5.8 3 Sudeste 6 Este 0 -- -- 84
2020-11-24 10:00:00 2.6 0 Calma 3 Sudeste 0 -- -- 100
2020-11-24 09:00:00 -1.1 0 Calma 3 Este 0 -- -- 100
2020-11-24 08:00:00 -1.4 0 Calma 2 Oeste 0 -- -- 100
2020-11-24 07:00:00 -1 0 Calma 2 Norte 0 -- -- 100
2020-11-24 06:00:00 -0.6 0 Calma 3 Norte 0 -- -- 100
2020-11-24 05:00:00 -0.2 0 Calma 3 Sudeste 0 -- -- 100
2020-11-24 04:00:00 0 0 Calma 0 Calma 0 -- -- 100
2020-11-24 03:00:00 0.7 0 Calma 2 Sudoeste 0 -- -- 100
2020-11-24 02:00:00 1 0 Calma 2 Noroeste 0 -- -- 99
2020-11-24 01:00:00 1.2 2 Noroeste 3 Norte 0 -- -- 98
2020-11-24 00:00:00 1.8 0 Calma 5 Sur 0 -- -- 97
2020-11-23 23:00:00 2.6 0 Calma 4 Oeste 0 -- -- 97
2020-11-23 22:00:00 3.3 2 Oeste 4 Oeste 0 -- -- 95
2020-11-23 21:00:00 4.1 0 Calma 4 Noroeste 0 -- -- 93
2020-11-23 20:00:00 5 0 Calma 3 Noroeste 0 -- -- 92
2020-11-23 19:00:00 5.8 0 Calma 3 Oeste 0 -- -- 90
2020-11-23 18:00:00 8.8 2 Oeste 5 Noroeste 0 -- -- 80
2020-11-23 17:00:00 13 3 Oeste 4 Oeste 0 -- -- 60
2020-11-23 16:00:00 13.6 2 Noroeste 5 Oeste 0 -- -- 51
2020-11-23 15:00:00 13 3 Noroeste 8 Noroeste 0 -- -- 53
2020-11-23 14:00:00 12.4 3 Noroeste 8 Oeste 0 -- -- 57
2020-11-23 13:00:00 11.5 4 Noroeste 8 Noroeste 0 -- -- 62
2020-11-23 12:00:00 10.4 4 Nordeste 9 Nordeste 0 -- -- 70
2020-11-23 11:00:00 9.1 5 Este 8 Nordeste 0 -- -- 71
2020-11-23 10:00:00 6.6 0 Calma 0 Calma 0 -- -- 81
2020-11-23 09:00:00 0.3 0 Calma -- -- 0 -- -- 100
2020-11-23 08:00:00 -0.8 0 Calma 0 Calma 0 -- -- 100
2020-11-23 07:00:00 -0.7 0 Calma 0 Calma 0 -- -- 99
2020-11-23 06:00:00 -0.4 0 Calma 2 Norte 0 -- -- 98
2020-11-23 05:00:00 0.5 0 Calma 5 Norte 0 -- -- 99
2020-11-23 04:00:00 0.2 0 Calma 3 Noroeste 0 -- -- 98
2020-11-23 03:00:00 0.5 0 Calma 2 Norte 0 -- -- 97
2020-11-23 02:00:00 0.8 0 Calma 3 Noroeste 0 -- -- 97
2020-11-23 01:00:00 1.2 0 Calma 2 Noroeste 0 -- -- 95
2020-11-23 00:00:00 1.6 0 Calma 5 Noroeste 0 -- -- 96
2020-11-22 23:00:00 2.6 0 Calma 0 Calma 0 -- -- 91
2020-11-22 22:00:00 2.9 0 Calma 0 Calma 0 -- -- 94
2020-11-22 21:00:00 3.6 0 Calma 0 Calma 0 -- -- 93
2020-11-22 20:00:00 4.5 0 Calma 2 Nordeste 0 -- -- 91
2020-11-22 19:00:00 6 0 Calma 3 Noroeste 0 -- -- 85
2020-11-22 18:00:00 9.7 0 Calma 5 Sudeste 0 -- -- 68
2020-11-22 17:00:00 16.3 2 Sudoeste 6 Sudoeste 0 -- -- 42
2020-11-22 16:00:00 14.8 4 Oeste 9 Sur 0 -- -- 43
2020-11-22 15:00:00 14 3 Sudeste 9 Sudoeste 0 -- -- 46
2020-11-22 14:00:00 12.4 3 Sudeste 9 Sudeste 0 -- -- 56
2020-11-22 13:00:00 10.3 3 Oeste 9 Sudeste 0 -- -- 59
2020-11-22 12:00:00 10.2 4 Sur 7 Sur 0 -- -- 61
2020-11-22 11:00:00 8.6 3 Sudeste 6 Sudeste 0 -- -- 62
2020-11-22 10:00:00 5.4 3 Este 6 Este 0 -- -- 69
2020-11-22 09:00:00 0 0 Calma -- -- 0 -- -- 92
2020-11-22 08:00:00 -1.3 0 Calma 0 Calma 0 -- -- 97
2020-11-22 07:00:00 -1.3 0 Calma -- -- 0 -- -- 96
2020-11-22 06:00:00 -0.9 0 Calma -- -- 0 -- -- 94
2020-11-22 05:00:00 -0.7 0 Calma -- -- 0 -- -- 95
2020-11-22 04:00:00 -0.6 0 Calma -- -- 0 -- -- 94
2020-11-22 03:00:00 0 0 Calma -- -- 0 -- -- 91
2020-11-22 02:00:00 0.4 0 Calma 2 Este 0 -- -- 92
2020-11-22 01:00:00 1 0 Calma 4 Nordeste 0 -- -- 88
2020-11-22 00:00:00 1.8 2 Norte 4 Norte 0 -- -- 85
2020-11-21 23:00:00 2.3 0 Calma 4 Norte 0 -- -- 82
2020-11-21 22:00:00 2.7 0 Calma 5 Norte 0 -- -- 83
2020-11-21 21:00:00 3.7 2 Norte 4 Norte 0 -- -- 83
2020-11-21 20:00:00 4.2 0 Calma 3 Noroeste 0 -- -- 82
2020-11-21 19:00:00 6.4 2 Este 6 Este 0 -- -- 70
2020-11-21 18:00:00 11 4 Este 12 Este 0 -- -- 46
2020-11-21 17:00:00 14.9 6 Este 14 Este 0 -- -- 38
2020-11-21 16:00:00 15.2 9 Este 19 Este 0 -- -- 32
2020-11-21 15:00:00 14.8 9 Este 20 Nordeste 0 -- -- 32
2020-11-21 14:00:00 13.8 9 Este 19 Este 0 -- -- 32
2020-11-21 13:00:00 12.7 7 Este 15 Nordeste 0 -- -- 35
2020-11-21 12:00:00 11.6 7 Este 13 Este 0 -- -- 40
2020-11-21 11:00:00 10.1 8 Nordeste 12 Norte 0 -- -- 40
2020-11-21 10:00:00 7.4 8 Norte 14 Nordeste 0 -- -- 55
2020-11-21 09:00:00 2.9 7 Nordeste 13 Norte 0 -- -- 71
2020-11-21 08:00:00 0.4 2 Norte 8 Nordeste 0 -- -- 88
2020-11-21 07:00:00 1.8 3 Noroeste 10 Nordeste 0 -- -- 81
2020-11-21 06:00:00 2.8 10 Nordeste 14 Nordeste 0 -- -- 75
2020-11-21 05:00:00 3 6 Nordeste 17 Nordeste 0 -- -- 77
2020-11-21 04:00:00 4.3 10 Nordeste 18 Este 0 -- -- 71
2020-11-21 03:00:00 4.4 9 Nordeste 17 Este 0 -- -- 74
2020-11-21 02:00:00 4.5 10 Nordeste 16 Nordeste 0 -- -- 78
2020-11-21 01:00:00 4 7 Nordeste 15 Este 0 -- -- 89
2020-11-21 00:00:00 4.3 8 Nordeste 21 Nordeste 0 -- -- 90
2020-11-20 23:00:00 4.7 8 Nordeste 17 Este 0 -- -- 89
2020-11-20 22:00:00 5.1 8 Nordeste 19 Nordeste 0 -- -- 87
2020-11-20 21:00:00 5.5 9 Nordeste 15 Este 0 -- -- 85
2020-11-20 20:00:00 6 6 Este 16 Este 0 -- -- 83
2020-11-20 19:00:00 7.4 5 Nordeste 12 Nordeste 0 -- -- 77
2020-11-20 18:00:00 9 9 Nordeste 16 Este 0 -- -- 71
2020-11-20 17:00:00 11.5 7 Este 25 Nordeste 0 -- -- 61
2020-11-20 16:00:00 11.9 11 Nordeste 25 Nordeste 0 -- -- 58
2020-11-20 15:00:00 11.5 10 Nordeste 30 Nordeste 0 -- -- 61
2020-11-20 14:00:00 10.6 13 Este 34 Este 0 -- -- 64
2020-11-20 13:00:00 9.9 14 Nordeste 29 Nordeste 0 -- -- 67
2020-11-20 12:00:00 9 16 Nordeste 34 Este 0 -- -- 71
2020-11-20 11:00:00 7.8 17 Este 34 Este 0 -- -- 76
2020-11-20 10:00:00 6 10 Nordeste 17 Nordeste 0 -- -- 85
2020-11-20 09:00:00 3.6 6 Nordeste 12 Nordeste 0 -- -- 94
2020-11-20 08:00:00 3 6 Nordeste 15 Nordeste 0 -- -- 95
2020-11-20 07:00:00 3.6 9 Nordeste 15 Nordeste 0 -- -- 95
2020-11-20 06:00:00 4.2 9 Nordeste 15 Nordeste 0 -- -- 93
2020-11-20 05:00:00 4.5 8 Nordeste 21 Nordeste 0 -- -- 94
2020-11-20 04:00:00 5.2 10 Nordeste 19 Nordeste 0 -- -- 93
2020-11-20 03:00:00 5.6 8 Este 15 Este 0 -- -- 93
2020-11-20 02:00:00 6.5 9 Este 23 Este 0 -- -- 91
2020-11-20 01:00:00 7.5 13 Este 28 Este 0 -- -- 88
2020-11-20 00:00:00 7.7 11 Este 22 Este 0 -- -- 90
2020-11-19 23:00:00 7.7 10 Este 23 Este 0 -- -- 92
2020-11-19 22:00:00 8.1 8 Este 22 Este 0 -- -- 93
2020-11-19 21:00:00 8.4 8 Este 18 Este 0 -- -- 90
2020-11-19 20:00:00 9.1 9 Este 23 Este 0 -- -- 91
2020-11-19 19:00:00 11.2 11 Este 26 Este 0 -- -- 86
2020-11-19 18:00:00 13.7 5 Este 9 Este 0 -- -- 84
2020-11-19 17:00:00 16.2 6 Este 11 Este 0 -- -- 71
2020-11-19 16:00:00 16.3 5 Nordeste 11 Nordeste 0 -- -- 70
2020-11-19 15:00:00 16.8 3 Sur 12 Nordeste 0 -- -- 69
2020-11-19 14:00:00 15.4 6 Este 15 Nordeste 0 -- -- 75
2020-11-19 13:00:00 14.9 9 Este 16 Nordeste 0 -- -- 79
2020-11-19 12:00:00 14.5 8 Este 14 Este 0 -- -- 81
2020-11-19 11:00:00 12.5 5 Este 10 Nordeste 0 -- -- 86
2020-11-19 10:00:00 9 3 Este 10 Nordeste 0 -- -- 100
2020-11-19 09:00:00 5.5 3 Este 9 Este 0 -- -- 100
2020-11-19 08:00:00 5.9 5 Este 13 Nordeste 0 -- -- 100
2020-11-19 07:00:00 6.8 6 Norte 10 Norte 0 -- -- 100
2020-11-19 06:00:00 5.5 3 Norte 8 Este 0 -- -- 100
2020-11-19 05:00:00 4.9 2 Nordeste 3 Este 0 -- -- 100
2020-11-19 04:00:00 4.9 0 Calma 3 Norte 0 -- -- 100
2020-11-19 03:00:00 4.7 0 Calma 3 Sudeste 0 -- -- 100
2020-11-19 02:00:00 5.4 0 Calma 4 Sudeste 0 -- -- 100
2020-11-19 01:00:00 7 0 Calma 6 Norte 0 -- -- 100
2020-11-19 00:00:00 7.6 3 Norte 5 Noroeste 0 -- -- 100
2020-11-18 23:00:00 7.6 0 Calma 4 Noroeste 0 -- -- 100
2020-11-18 22:00:00 8.4 0 Calma 3 Noroeste 0 -- -- 100
2020-11-18 21:00:00 8.3 0 Calma 3 Norte 0 -- -- 100
2020-11-18 20:00:00 9.1 0 Calma 3 Norte 0 -- -- 98
2020-11-18 19:00:00 10.5 3 Norte 4 Noroeste 0 -- -- 95
2020-11-18 18:00:00 12.5 0 Calma 6 Sudeste 0 -- -- 89
2020-11-18 17:00:00 17.5 3 Sudeste 7 Sudeste 0 -- -- 67
2020-11-18 16:00:00 17.8 3 Sudeste 7 Sur 0 -- -- 66
2020-11-18 15:00:00 16.7 2 Sur 8 Este 0 -- -- 71
2020-11-18 14:00:00 14.7 4 Sudeste 8 Sur 0 -- -- 77
2020-11-18 13:00:00 13.9 3 Nordeste 8 Sudeste 0 -- -- 78
2020-11-18 12:00:00 12.7 3 Nordeste 8 Nordeste 0 -- -- 80
2020-11-18 11:00:00 11.9 3 Nordeste 7 Nordeste 0 -- -- 81
2020-11-18 10:00:00 8.3 3 Nordeste 5 Nordeste 0 -- -- 100
2020-11-18 09:00:00 3.8 2 Norte 5 Nordeste 0 -- -- 100
2020-11-18 08:00:00 3.4 2 Norte 10 Norte 0 -- -- 100
2020-11-18 07:00:00 3.3 2 Sudeste 3 Sur 0 -- -- 100
2020-11-18 06:00:00 4.3 3 Noroeste 6 Noroeste 0 -- -- 100
2020-11-18 05:00:00 4.1 3 Sudoeste 4 Sudoeste 0 -- -- 100
2020-11-18 04:00:00 4.4 2 Sudeste 5 Sudeste 0 -- -- 100
2020-11-18 03:00:00 4.4 0 Calma -- -- 0 -- -- 100
2020-11-18 02:00:00 4.3 0 Calma -- -- 0 -- -- 100
2020-11-18 01:00:00 4.7 0 Calma 2 Noroeste 0 -- -- 100
2020-11-18 00:00:00 5.1 0 Calma 2 Noroeste 0 -- -- 100
2020-11-17 23:00:00 5.8 0 Calma 3 Noroeste 0 -- -- 100
2020-11-17 22:00:00 6.3 0 Calma 2 Noroeste 0 -- -- 100
2020-11-17 21:00:00 6.8 0 Calma 2 Norte 0 -- -- 99
2020-11-17 20:00:00 7.9 0 Calma 3 Norte 0 -- -- 98
2020-11-17 19:00:00 9.1 0 Calma 3 Este 0 -- -- 95
2020-11-17 18:00:00 12 0 Calma 4 Sudeste 0 -- -- 84
2020-11-17 17:00:00 17.2 0 Calma 6 Sudeste 0 -- -- 61
2020-11-17 16:00:00 17.7 0 Calma 5 Noroeste 0 -- -- 58
2020-11-17 15:00:00 15.7 2 Oeste 9 Sudoeste 0 -- -- 68
2020-11-17 14:00:00 13.8 3 Sudoeste 10 Sudoeste 0 -- -- 76
2020-11-17 13:00:00 13.1 3 Sur 6 Sudoeste 0 -- -- 80
2020-11-17 12:00:00 12.2 4 Sur 9 Sudoeste 0 -- -- 83
2020-11-17 11:00:00 12 3 Sudeste 5 Sudeste 0 -- -- 81
2020-11-17 10:00:00 8 3 Sudeste 5 Este 0 -- -- 100
2020-11-17 09:00:00 3.4 0 Calma 2 Nordeste 0 -- -- 100
2020-11-17 08:00:00 2.1 0 Calma 2 Noroeste 0 -- -- 100
2020-11-17 07:00:00 2.2 0 Calma 3 Sudoeste 0 -- -- 100
2020-11-17 06:00:00 2.9 0 Calma 2 Oeste 0 -- -- 100
2020-11-17 05:00:00 3.1 0 Calma 3 Norte 0 -- -- 100
2020-11-17 04:00:00 3.6 0 Calma 3 Oeste 0 -- -- 100
2020-11-17 03:00:00 4.1 0 Calma 3 Norte 0 -- -- 100
2020-11-17 02:00:00 4.7 2 Norte 4 Norte 0 -- -- 100
2020-11-17 01:00:00 4.7 0 Calma 3 Norte 0 -- -- 100
2020-11-17 00:00:00 5.2 2 Noroeste 3 Norte 0 -- -- 100
2020-11-16 23:00:00 5.8 0 Calma 3 Oeste 0 -- -- 100
2020-11-16 22:00:00 6.3 0 Calma 3 Nordeste 0 -- -- 99
2020-11-16 21:00:00 7 0 Calma 3 Noroeste 0 -- -- 99
2020-11-16 20:00:00 7.8 0 Calma 3 Norte 0 -- -- 99
2020-11-16 19:00:00 9.5 0 Calma 6 Norte 0 -- -- 90
2020-11-16 18:00:00 11.9 3 Norte 5 Norte 0 -- -- 78
2020-11-16 17:00:00 15 0 Calma 8 Oeste 0 -- -- 63
2020-11-16 16:00:00 14.4 5 Noroeste 13 Oeste 0 -- -- 66
2020-11-16 15:00:00 13.8 7 Oeste 13 Oeste 0 -- -- 74
2020-11-16 14:00:00 14 3 Norte 12 Sur 0 -- -- 69
2020-11-16 13:00:00 13.7 3 Sudeste 10 Sur 0 -- -- 70
2020-11-16 12:00:00 14.2 5 Sudeste 13 Sudeste 0 -- -- 75
2020-11-16 11:00:00 12.1 8 Este 17 Este 0 -- -- 86
2020-11-16 10:00:00 10.5 6 Este 14 Este 0 -- -- 91
2020-11-16 09:00:00 7.7 8 Nordeste 19 Norte 0 -- -- 95
2020-11-16 08:00:00 8.1 9 Noroeste 14 Noroeste 0 -- -- 94
2020-11-16 07:00:00 8.6 6 Noroeste 15 Noroeste 0 -- -- 94
2020-11-16 06:00:00 8.7 9 Noroeste 12 Noroeste 0 -- -- 100
2020-11-16 05:00:00 8.8 5 Oeste 10 Oeste 0 -- -- 100
2020-11-16 04:00:00 10.2 6 Sudoeste 9 Sudoeste 0 -- -- 100
2020-11-16 03:00:00 10.6 7 Oeste 11 Oeste 0 -- -- 100
2020-11-16 02:00:00 11.9 9 Oeste 13 Oeste 0 -- -- 99
2020-11-16 01:00:00 11.9 8 Sudoeste 13 Sudoeste 0 -- -- 100
2020-11-16 00:00:00 12.1 11 Oeste 21 Oeste 0 -- -- 100
2020-11-15 23:00:00 12.6 16 Oeste 35 Sudoeste 0 -- -- 99
2020-11-15 22:00:00 12.9 24 Sudoeste 31 Sudoeste 0 -- -- 98
2020-11-15 21:00:00 13.4 24 Sudoeste 41 Sudoeste 0 -- -- 97
2020-11-15 20:00:00 13.6 26 Sudoeste 35 Sudoeste 0 -- -- 96
2020-11-15 19:00:00 13.7 26 Sudoeste 41 Sudoeste 0 -- -- 96
2020-11-15 18:00:00 14.2 30 Sudoeste 41 Sudoeste 0 -- -- 92
2020-11-15 17:00:00 14.9 33 Sudoeste 47 Sudoeste 0 -- -- 88
2020-11-15 16:00:00 15.2 32 Sudoeste 57 Sudoeste 0 -- -- 88
2020-11-15 15:00:00 15.2 36 Sudoeste 55 Sudoeste 0 -- -- 88
2020-11-15 14:00:00 14.5 31 Oeste 60 Oeste 0 -- -- 95
2020-11-15 13:00:00 15.3 43 Sudoeste 56 Sudoeste 0 -- -- 91
2020-11-15 12:00:00 14.3 29 Sudoeste 48 Sudoeste 0 -- -- 95
2020-11-15 11:00:00 13.9 22 Sudoeste 39 Sudoeste 0 -- -- 96
2020-11-15 10:00:00 13.3 24 Sudoeste 36 Sudoeste 0 -- -- 97
2020-11-15 09:00:00 12.3 18 Sudoeste 46 Sudoeste 0 -- -- 98
2020-11-15 08:00:00 12 22 Sudoeste 39 Sudoeste 0 -- -- 98
2020-11-15 07:00:00 11.8 22 Sudoeste 31 Sudoeste 0 -- -- 98
2020-11-15 06:00:00 11.4 18 Sudoeste 26 Sudoeste 0 -- -- 97
2020-11-15 05:00:00 10.9 14 Sudoeste 24 Sudoeste 0 -- -- 98
2020-11-15 04:00:00 10.6 18 Sudoeste 28 Sudoeste 0 -- -- 99
2020-11-15 03:00:00 10.9 17 Sudoeste 22 Sudoeste 0 -- -- 96
2020-11-15 02:00:00 11 16 Sudoeste 29 Sudoeste 0 -- -- 95
2020-11-15 01:00:00 10.9 19 Sudoeste 29 Sudoeste 0 -- -- 97
2020-11-15 00:00:00 10.6 17 Sudoeste 26 Sur 0 -- -- 98
2020-11-14 23:00:00 10.9 18 Sudoeste 24 Sudoeste 0 -- -- 98
2020-11-14 22:00:00 11.4 17 Sudoeste 23 Sudoeste 0 -- -- 97
2020-11-14 21:00:00 11.5 10 Sudoeste 17 Sur 0 -- -- 98
2020-11-14 20:00:00 11.1 9 Sudoeste 13 Sudoeste 0 -- -- 99
2020-11-14 19:00:00 11.3 5 Sudoeste 8 Sudoeste 0 -- -- 98
2020-11-14 18:00:00 11.6 4 Sur 6 Sur 0.2 -- -- 97
2020-11-14 17:00:00 12.4 0 Calma 9 Sur 0 -- -- 92
2020-11-14 16:00:00 12.7 3 Sur 12 Sur 0 -- -- 86
2020-11-14 15:00:00 13.3 5 Sudoeste 9 Oeste 0 -- -- 85
2020-11-14 14:00:00 11.7 4 Sur 9 Sudeste 0 -- -- 92
2020-11-14 13:00:00 10 4 Sudeste 10 Sudeste 0 -- -- 100
2020-11-14 12:00:00 8.7 0 Calma 6 Este 0 -- -- 100
2020-11-14 11:00:00 7.1 3 Nordeste 9 Este 0 -- -- 100
2020-11-14 10:00:00 6.1 4 Este 7 Este 0 -- -- 100
2020-11-14 09:00:00 4.5 3 Este 7 Este 0 -- -- 100
2020-11-14 08:00:00 3.6 3 Este 6 Este 0 -- -- 100
2020-11-14 07:00:00 3.7 3 Este 8 Sudeste 0 -- -- 100
2020-11-14 06:00:00 3.1 4 Sudeste 7 Este 0 -- -- 100
2020-11-14 05:00:00 2.7 5 Sudeste 10 Sudeste 0 -- -- 100
2020-11-14 04:00:00 2.9 0 Calma 4 Sudeste 0 -- -- 100
2020-11-14 03:00:00 3 2 Este 4 Sudeste 0 -- -- 100
2020-11-14 02:00:00 3.5 2 Norte 4 Este 0 -- -- 100
2020-11-14 01:00:00 3.8 0 Calma 4 Nordeste 0 -- -- 100
2020-11-14 00:00:00 4 0 Calma 4 Noroeste 0 -- -- 100
2020-11-13 23:00:00 4.7 0 Calma 3 Oeste 0 -- -- 100
2020-11-13 22:00:00 5.5 0 Calma 4 Este 0 -- -- 100
2020-11-13 21:00:00 6.1 3 Sudeste 8 Sur 0 -- -- 100
2020-11-13 20:00:00 7.1 4 Sudeste 9 Sudeste 0 -- -- 100
2020-11-13 19:00:00 7.3 0 Calma 9 Oeste 0 -- -- 100
2020-11-13 18:00:00 8.2 6 Noroeste 14 Oeste 0 -- -- 100
2020-11-13 17:00:00 8.9 9 Noroeste 14 Oeste 0 -- -- 98
2020-11-13 16:00:00 11.1 8 Oeste 13 Oeste 0 -- -- 90
2020-11-13 15:00:00 9.6 3 Sudoeste 9 Sur 0 -- -- 96
2020-11-13 14:00:00 9.8 2 Sur 8 Sur 0 -- -- 94
2020-11-13 13:00:00 9 3 Sudoeste 8 Sudoeste 0 -- -- 99
2020-11-13 12:00:00 8 4 Sur 12 Sudeste 0 -- -- 100
2020-11-13 11:00:00 7.6 4 Sur 8 Sudeste 0 -- -- 100
2020-11-13 10:00:00 6.8 0 Calma 3 Sudoeste 0 -- -- 100
2020-11-13 09:00:00 5.1 0 Calma 5 Oeste 0 -- -- 100
2020-11-13 08:00:00 4.3 4 Noroeste 12 Oeste 0 -- -- 100
2020-11-13 07:00:00 4.7 3 Oeste 4 Sudoeste 0 -- -- 100
2020-11-13 06:00:00 4.6 0 Calma 7 Este 0 -- -- 100
2020-11-13 05:00:00 5.3 4 Este 6 Este 0 -- -- 100
2020-11-13 04:00:00 5.3 2 Noroeste 5 Noroeste 0 -- -- 100
2020-11-13 03:00:00 4.5 3 Norte 5 Noroeste 0 -- -- 100
2020-11-13 02:00:00 4.7 2 Norte 4 Noroeste 0 -- -- 100
2020-11-13 01:00:00 6.1 0 Calma 2 Noroeste 0 -- -- 100
2020-11-13 00:00:00 7 0 Calma 9 Noroeste 0 -- -- 100
2020-11-12 23:00:00 7.2 5 Noroeste 6 Noroeste 0 -- -- 100
2020-11-12 22:00:00 7.8 2 Noroeste 7 Noroeste 0 -- -- 99
2020-11-12 21:00:00 7.8 2 Noroeste 5 Noroeste 0 -- -- 99
2020-11-12 20:00:00 8 3 Nordeste 5 Nordeste 0 -- -- 97
2020-11-12 19:00:00 8.5 0 Calma 6 Nordeste 0 -- -- 96
2020-11-12 18:00:00 9.8 3 Norte 8 Norte 0 -- -- 93
2020-11-12 17:00:00 11.6 4 Norte 9 Nordeste 0 -- -- 86
2020-11-12 16:00:00 13.2 4 Nordeste 9 Noroeste 0 -- -- 78
2020-11-12 15:00:00 11.7 6 Norte 11 Noroeste 0 -- -- 84
2020-11-12 14:00:00 10.8 2 Norte 7 Norte 0 -- -- 89
2020-11-12 13:00:00 9.7 2 Norte 6 Noroeste 0 -- -- 94
2020-11-12 12:00:00 8.9 4 Norte 10 Noroeste 0 -- -- 97
2020-11-12 11:00:00 8.7 5 Noroeste 8 Noroeste 0 -- -- 96
2020-11-12 10:00:00 9.6 3 Norte 6 Norte 0 -- -- 92
2020-11-12 09:00:00 5.5 2 Norte 3 Norte 0 -- -- 100
2020-11-12 08:00:00 5.4 3 Norte 4 Noroeste 0 -- -- 100
2020-11-12 07:00:00 6.2 3 Noroeste 4 Noroeste 0 -- -- 100
2020-11-12 06:00:00 6.7 3 Nordeste 6 Este 0 -- -- 100
2020-11-12 05:00:00 6.6 3 Este 5 Este 0 -- -- 100
2020-11-12 04:00:00 6 0 Calma 3 Norte 0 -- -- 100
2020-11-12 03:00:00 5.3 3 Norte 5 Norte 0 -- -- 100
2020-11-12 02:00:00 5.7 0 Calma 3 Nordeste 0 -- -- 100
2020-11-12 01:00:00 6.6 0 Calma 8 Este 0 -- -- 100
2020-11-12 00:00:00 7.4 4 Este 6 Este 0 -- -- 99
2020-11-11 23:00:00 7.2 3 Nordeste 4 Nordeste 0 -- -- 100
2020-11-11 22:00:00 6.8 3 Sur 5 Sur 0 -- -- 99
2020-11-11 21:00:00 7.8 3 Este 6 Sudeste 0 -- -- 98
2020-11-11 20:00:00 7.8 3 Este 8 Sur 0 -- -- 97
2020-11-11 19:00:00 8 8 Sur 13 Sudeste 0 -- -- 96
2020-11-11 18:00:00 8.6 11 Sur 17 Sur 0 -- -- 94
2020-11-11 17:00:00 10 8 Sudoeste 11 Sudoeste 0 -- -- 87
2020-11-11 16:00:00 10.6 7 Sudoeste 13 Sudoeste 0 -- -- 82
2020-11-11 15:00:00 10.2 9 Sudoeste 16 Oeste 0 -- -- 87
2020-11-11 14:00:00 9.9 9 Oeste 17 Oeste 0 -- -- 87
2020-11-11 13:00:00 9.1 12 Oeste 17 Oeste 0 -- -- 91
2020-11-11 12:00:00 9.6 4 Sudoeste 9 Sudeste 0 -- -- 87
2020-11-11 11:00:00 8.7 5 Sur 8 Sudoeste 0 -- -- 91
2020-11-11 10:00:00 7.9 0 Calma 4 Sudeste 0 -- -- 96
2020-11-11 09:00:00 7.4 0 Calma 5 Sudeste 0 -- -- 98
2020-11-11 08:00:00 7.3 3 Norte 4 Norte 0 -- -- 97
2020-11-11 07:00:00 7.2 2 Nordeste 9 Nordeste 0 -- -- 97
2020-11-11 06:00:00 7.2 3 Norte 6 Nordeste 0 -- -- 97
2020-11-11 05:00:00 7.1 4 Norte 5 Este 0 -- -- 98
2020-11-11 04:00:00 6.9 3 Norte 6 Sudeste 0 -- -- 99
2020-11-11 03:00:00 6.4 0 Calma 6 Sudeste 0 -- -- 100
2020-11-11 02:00:00 5.8 0 Calma 4 Sur 0 -- -- 100
2020-11-11 01:00:00 6.2 3 Noroeste 7 Oeste 0 -- -- 100
2020-11-11 00:00:00 4.8 3 Oeste 5 Noroeste 0 -- -- 100
2020-11-10 23:00:00 5.9 0 Calma 6 Noroeste 0 -- -- 99
2020-11-10 22:00:00 6.4 3 Norte 6 Noroeste 0 -- -- 99
2020-11-10 21:00:00 7.9 0 Calma 9 Norte 0 -- -- 93
2020-11-10 20:00:00 8.6 2 Sudeste 9 Nordeste 0 -- -- 93
2020-11-10 19:00:00 8.7 0 Calma 10 Noroeste 0 -- -- 92
2020-11-10 18:00:00 8.7 4 Nordeste 11 Nordeste 0 -- -- 94
2020-11-10 17:00:00 9.1 4 Sudeste 9 Nordeste 0 -- -- 96
2020-11-10 16:00:00 8.8 4 Este 13 Este 0 -- -- 99
2020-11-10 15:00:00 9 4 Sudeste 8 Sudeste 0 -- -- 100
2020-11-10 14:00:00 8.8 5 Sudeste 10 Sudeste 0 -- -- 100
2020-11-10 13:00:00 8.6 4 Sudeste 13 Sudeste 0.2 -- -- 100
2020-11-10 12:00:00 8.2 6 Sudeste 12 Sudeste 0 -- -- 100
2020-11-10 11:00:00 7.4 4 Sudeste 8 Sur 0 -- -- 100
2020-11-10 10:00:00 6.5 6 Sudeste 11 Este 0 -- -- 100
2020-11-10 09:00:00 5.6 3 Este 8 Este 0 -- -- 100
2020-11-10 08:00:00 4.9 6 Sudeste 10 Sudeste 0 -- -- 100
2020-11-10 07:00:00 4.5 4 Este 7 Este 0 -- -- 100
2020-11-10 06:00:00 4.6 2 Nordeste 5 Sudeste 0 -- -- 100
2020-11-10 05:00:00 5.1 0 Calma 5 Sudeste 0 -- -- 100
2020-11-10 04:00:00 5.2 0 Calma 5 Noroeste 0 -- -- 100
2020-11-10 03:00:00 5.7 3 Noroeste 5 Noroeste 0 -- -- 100
2020-11-10 02:00:00 5 0 Calma 7 Sudeste 0 -- -- 100
2020-11-10 01:00:00 5.5 0 Calma 6 Sudoeste 0 -- -- 100
2020-11-10 00:00:00 5.7 2 Sur 4 Sur 0 -- -- 100
2020-11-09 23:00:00 6.5 3 Oeste 4 Oeste 0 -- -- 100
2020-11-09 22:00:00 7 3 Noroeste 6 Oeste 0 -- -- 100
2020-11-09 21:00:00 7.6 2 Oeste 8 Oeste 0 -- -- 99
2020-11-09 20:00:00 9.5 3 Sudoeste 10 Sudoeste 0 -- -- 95
2020-11-09 19:00:00 10.5 7 Sudoeste 13 Oeste 0 -- -- 93
2020-11-09 18:00:00 11.7 12 Sudoeste 21 Sudoeste 0 -- -- 86
2020-11-09 17:00:00 12.5 13 Oeste 22 Oeste 0 -- -- 80
2020-11-09 16:00:00 13.5 13 Sudoeste 24 Sudoeste 0.2 -- -- 81
2020-11-09 15:00:00 13.6 13 Sudoeste 22 Sudoeste 0 -- -- 80
2020-11-09 14:00:00 13.6 17 Sudoeste 24 Sudoeste 0 -- -- 76
2020-11-09 13:00:00 11.8 15 Sudoeste 26 Sudoeste 0 -- -- 87
2020-11-09 12:00:00 12.3 18 Sudoeste 29 Oeste 0 -- -- 85
2020-11-09 11:00:00 11.8 19 Sudoeste 29 Sudoeste 0 -- -- 89
2020-11-09 10:00:00 10.7 17 Sudoeste 23 Sudoeste 0 -- -- 98
2020-11-09 09:00:00 8.9 6 Sur 15 Sur 0 -- -- 100
2020-11-09 08:00:00 7.4 0 Calma 8 Oeste 0 -- -- 100
2020-11-09 07:00:00 8.4 2 Sur 5 Sur 0 -- -- 100
2020-11-09 06:00:00 7.6 2 Oeste 9 Sudoeste 0 -- -- 100
2020-11-09 05:00:00 8.6 4 Sur 9 Sudeste 0 -- -- 100
2020-11-09 04:00:00 9.1 5 Sudoeste 8 Sudoeste 0.2 -- -- 100
2020-11-09 03:00:00 9 4 Sur 14 Sudoeste 0 -- -- 99
2020-11-09 02:00:00 9.3 9 Sudoeste 16 Sudoeste 0 -- -- 98
2020-11-09 01:00:00 9.3 9 Sur 18 Sur 0 -- -- 99
2020-11-09 00:00:00 9.3 9 Sur 22 Sudoeste 0.2 -- -- 99
2020-11-08 23:00:00 9.5 13 Sudoeste 21 Sudoeste 0.6 -- -- 100
2020-11-08 22:00:00 9.5 13 Sur 22 Sur 0.4 -- -- 100
2020-11-08 21:00:00 9.5 9 Sur 24 Sur 0.4 -- -- 100
2020-11-08 20:00:00 9.6 14 Sur 26 Sudoeste 2 -- -- 99
2020-11-08 19:00:00 10.2 9 Sur 22 Sur 0.8 -- -- 94
2020-11-08 18:00:00 11.2 14 Sur 23 Sur 0.4 -- -- 91
2020-11-08 17:00:00 12.4 10 Sur 27 Sudoeste 0 -- -- 88
2020-11-08 16:00:00 12.6 5 Sur 21 Sudoeste 0 -- -- 92
2020-11-08 15:00:00 11.8 11 Sudoeste 35 Sudoeste 0.6 -- -- 96
2020-11-08 14:00:00 13.1 23 Sudoeste 38 Sudoeste 0 -- -- 82
2020-11-08 13:00:00 14 15 Sur 27 Sur 0.2 -- -- 74
2020-11-08 12:00:00 12.4 14 Sur 21 Sur 0 -- -- 82
2020-11-08 11:00:00 10.9 12 Sudeste 18 Sudeste 0 -- -- 87
2020-11-08 10:00:00 9.1 9 Sudeste 14 Sudeste 0 -- -- 92
2020-11-08 09:00:00 7.6 6 Sudeste 11 Sudeste 0 -- -- 96
2020-11-08 08:00:00 6.5 7 Sudeste 14 Sudeste 0 -- -- 98
2020-11-08 07:00:00 7.7 8 Sudeste 15 Sudeste 0 -- -- 96
2020-11-08 06:00:00 8.3 10 Sudeste 16 Sudeste 0 -- -- 95
2020-11-08 05:00:00 8.3 8 Sudeste 18 Sur 0.2 -- -- 96
2020-11-08 04:00:00 8.4 9 Sur 15 Sur 0 -- -- 96
2020-11-08 03:00:00 8.4 4 Este 9 Este 0 -- -- 96
2020-11-08 02:00:00 8.5 7 Sur 10 Sur 0 -- -- 96
2020-11-08 01:00:00 8.4 4 Sudeste 14 Sur 0 -- -- 95
2020-11-08 00:00:00 8.3 9 Sur 17 Sur 0 -- -- 94
2020-11-07 23:00:00 8.8 11 Sudoeste 17 Sur 0 -- -- 93
2020-11-07 22:00:00 9.2 9 Sur 22 Sur 0 -- -- 91
2020-11-07 21:00:00 9.1 10 Sudoeste 20 Sudoeste 0 -- -- 92
2020-11-07 20:00:00 10.7 13 Sudoeste 19 Sudoeste 0 -- -- 87
2020-11-07 19:00:00 11.6 10 Sudoeste 21 Sudoeste 0 -- -- 87
2020-11-07 18:00:00 11.8 15 Sudoeste 32 Sudoeste 0 -- -- 84
2020-11-07 17:00:00 14 20 Sudoeste 41 Sudoeste 0 -- -- 74
2020-11-07 16:00:00 15.2 28 Sudoeste 42 Sudoeste 0 -- -- 70
2020-11-07 15:00:00 14.8 27 Sudoeste 42 Sudoeste 0 -- -- 76
2020-11-07 14:00:00 14.4 24 Oeste 37 Sudoeste 0 -- -- 78
2020-11-07 13:00:00 13.1 23 Oeste 33 Oeste 0 -- -- 87
2020-11-07 12:00:00 11.4 24 Sudoeste 44 Sudoeste 0.6 -- -- 96
2020-11-07 11:00:00 11.9 23 Sudoeste 32 Sudoeste 0 -- -- 94
2020-11-07 10:00:00 10.9 16 Sudoeste 25 Sudoeste 0 -- -- 98
2020-11-07 09:00:00 9.9 8 Sur 14 Sur 0 -- -- 100
2020-11-07 08:00:00 9.6 5 Sudeste 12 Sudeste 0.4 -- -- 100
2020-11-07 07:00:00 9.9 4 Este 9 Este 0 -- -- 100
2020-11-07 06:00:00 9.7 4 Sur 10 Sudeste 0 -- -- 100
2020-11-07 05:00:00 9.9 7 Sudeste 13 Sudeste 0 -- -- 100
2020-11-07 04:00:00 10 8 Sudeste 16 Sudeste 0.2 -- -- 100
2020-11-07 03:00:00 10.4 8 Sudeste 12 Sudeste 0.4 -- -- 100
2020-11-07 02:00:00 10.3 5 Este 13 Este 0 -- -- 100
2020-11-07 01:00:00 10.2 5 Este 13 Sudeste 0 -- -- 100
2020-11-07 00:00:00 10.8 6 Sudoeste 25 Sudoeste 6.6 -- -- 100
2020-11-06 23:00:00 10.4 7 Sudoeste 23 Sudeste 0 -- -- 100
2020-11-06 22:00:00 10.3 17 Sudeste 37 Sur 0.8 -- -- 100
2020-11-06 21:00:00 11 15 Sudoeste 50 Sudoeste 7.4 -- -- 99
2020-11-06 20:00:00 13.6 13 Sudeste 18 Sudeste 0 -- -- 87
2020-11-06 19:00:00 13.9 9 Este 21 Sudeste 0 -- -- 87
2020-11-06 18:00:00 14.2 9 Este 26 Sudeste 0 -- -- 86
2020-11-06 17:00:00 14.7 12 Sudeste 29 Este 0 -- -- 82
2020-11-06 16:00:00 15.2 17 Sudeste 31 Sudeste 0 -- -- 79
2020-11-06 15:00:00 14.5 11 Sudeste 23 Sudeste 0 -- -- 81
2020-11-06 14:00:00 14.1 15 Sudeste 32 Sudeste 0 -- -- 82
2020-11-06 13:00:00 13.7 11 Este 29 Este 0 -- -- 85
2020-11-06 12:00:00 12.5 14 Este 26 Este 0 -- -- 89
2020-11-06 11:00:00 11.8 10 Este 21 Este 0 -- -- 90
2020-11-06 10:00:00 10.7 6 Este 15 Este 0 -- -- 90
2020-11-06 09:00:00 9.3 7 Este 13 Este 0 -- -- 93
2020-11-06 08:00:00 8.6 6 Este 14 Nordeste 0 -- -- 95
2020-11-06 07:00:00 8.5 5 Este 9 Este 0 -- -- 97
2020-11-06 06:00:00 9 9 Sudoeste 24 Oeste 0 -- -- 95
2020-11-06 05:00:00 8.6 4 Este 18 Este 0 -- -- 96
2020-11-06 04:00:00 8.6 10 Este 23 Este 0 -- -- 96
2020-11-06 03:00:00 8.3 9 Este 21 Este 0 -- -- 96
2020-11-06 02:00:00 9 12 Este 22 Este 0 -- -- 95
2020-11-06 01:00:00 9.5 10 Este 23 Este 0 -- -- 96
2020-11-06 00:00:00 9.7 10 Este 23 Este 0 -- -- 96
2020-11-05 23:00:00 9.8 11 Este 25 Nordeste 0.2 -- -- 96
2020-11-05 22:00:00 9.4 10 Este 28 Este 0.6 -- -- 97
2020-11-05 21:00:00 10.3 13 Este 29 Este 0 -- -- 92
2020-11-05 20:00:00 10.5 15 Este 34 Este 0 -- -- 92
2020-11-05 19:00:00 10.9 16 Este 31 Este 0.2 -- -- 88
2020-11-05 18:00:00 11.5 16 Este 32 Este 0 -- -- 84
2020-11-05 17:00:00 11.9 20 Este 38 Este 0 -- -- 80
2020-11-05 16:00:00 12.6 18 Este 36 Este 0 -- -- 76
2020-11-05 15:00:00 11.6 14 Este 31 Este 0 -- -- 76
2020-11-05 14:00:00 11.7 16 Este 35 Este 0 -- -- 73
2020-11-05 13:00:00 12.3 20 Este 48 Este 0 -- -- 72
2020-11-05 12:00:00 12.3 23 Este 45 Nordeste 0 -- -- 74
2020-11-05 11:00:00 9.8 19 Este 40 Este 0 -- -- 83
2020-11-05 10:00:00 7.6 18 Este 39 Este 0 -- -- 90
2020-11-05 09:00:00 6.9 19 Este 42 Este 0 -- -- 92
2020-11-05 08:00:00 5.9 18 Nordeste 44 Nordeste 0 -- -- 94
2020-11-05 07:00:00 5.7 18 Nordeste 40 Este 0 -- -- 93
2020-11-05 06:00:00 5.9 19 Nordeste 40 Este 0 -- -- 92
2020-11-05 05:00:00 5.5 19 Este 46 Este 0 -- -- 92
2020-11-05 04:00:00 5.6 22 Nordeste 42 Nordeste 0 -- -- 89
2020-11-05 03:00:00 5.3 21 Nordeste 48 Este 0 -- -- 88
2020-11-05 02:00:00 5.5 25 Nordeste 53 Nordeste 0 -- -- 85
2020-11-05 01:00:00 5 22 Nordeste 49 Este 0 -- -- 85
2020-11-05 00:00:00 5.1 28 Nordeste 49 Este 0 -- -- 83
2020-11-04 23:00:00 5 24 Nordeste 47 Este 0 -- -- 81
2020-11-04 22:00:00 5.4 26 Nordeste 54 Este 0.2 -- -- 82
2020-11-04 21:00:00 5.5 26 Nordeste 49 Nordeste 0 -- -- 81
2020-11-04 20:00:00 5.7 21 Nordeste 49 Nordeste 0.2 -- -- 80
2020-11-04 19:00:00 6.9 22 Nordeste 53 Nordeste 0 -- -- 69
2020-11-04 18:00:00 7.4 23 Nordeste 51 Nordeste 0 -- -- 68
2020-11-04 17:00:00 8 24 Nordeste 46 Nordeste 0 -- -- 65
2020-11-04 16:00:00 8.8 23 Este 49 Nordeste 0 -- -- 61
2020-11-04 15:00:00 9.5 26 Nordeste 52 Este 0 -- -- 60
2020-11-04 14:00:00 8.9 27 Nordeste 51 Nordeste 0 -- -- 64
2020-11-04 13:00:00 8.6 23 Nordeste 49 Nordeste 0 -- -- 66
2020-11-04 12:00:00 8.4 24 Nordeste 43 Este 0 -- -- 67
2020-11-04 11:00:00 6.9 19 Nordeste 36 Nordeste 0 -- -- 76
2020-11-04 10:00:00 6.3 15 Nordeste 32 Nordeste 0 -- -- 78
2020-11-04 09:00:00 4.6 14 Nordeste 27 Nordeste 0 -- -- 87
2020-11-04 08:00:00 3.6 15 Nordeste 27 Nordeste 0 -- -- 87
2020-11-04 07:00:00 3.9 13 Nordeste 25 Nordeste 0 -- -- 88
2020-11-04 06:00:00 4.5 13 Nordeste 29 Nordeste 0 -- -- 84
2020-11-04 05:00:00 4.9 13 Nordeste 24 Nordeste 0 -- -- 84
2020-11-04 04:00:00 4.8 12 Nordeste 22 Este 0 -- -- 86
2020-11-04 03:00:00 5 12 Nordeste 30 Este 0 -- -- 84
2020-11-04 02:00:00 5.2 10 Nordeste 25 Este 0 -- -- 84
2020-11-04 01:00:00 4.9 11 Nordeste 26 Nordeste 0 -- -- 87
2020-11-04 00:00:00 4.8 12 Nordeste 22 Nordeste 0 -- -- 88
2020-11-03 23:00:00 4.7 10 Este 28 Nordeste 0 -- -- 89
2020-11-03 22:00:00 5.5 12 Nordeste 27 Este 0 -- -- 86
2020-11-03 21:00:00 6.6 12 Nordeste 27 Nordeste 0 -- -- 82
2020-11-03 20:00:00 7.5 13 Este 29 Este 0 -- -- 80
2020-11-03 19:00:00 8.3 14 Este 28 Este 0 -- -- 77
2020-11-03 18:00:00 9.7 12 Este 31 Este 0 -- -- 72
2020-11-03 17:00:00 11.5 15 Este 34 Este 0 -- -- 67
2020-11-03 16:00:00 13.8 14 Este 27 Sudeste 0 -- -- 60
2020-11-03 15:00:00 14.6 11 Nordeste 26 Nordeste 0 -- -- 53
2020-11-03 14:00:00 14.4 12 Nordeste 22 Este 0 -- -- 56
2020-11-03 13:00:00 13.1 11 Nordeste 22 Este 0 -- -- 66
2020-11-03 12:00:00 11.8 7 Nordeste 15 Nordeste 0 -- -- 74
2020-11-03 11:00:00 10.2 7 Nordeste 18 Noroeste 0 -- -- 80
2020-11-03 10:00:00 9.4 7 Norte 12 Norte 0 -- -- 86
2020-11-03 09:00:00 8 9 Norte 16 Norte 0 -- -- 95
2020-11-03 08:00:00 8.1 11 Norte 18 Norte 0 -- -- 96
2020-11-03 07:00:00 8.9 11 Norte 17 Norte 0 -- -- 96
2020-11-03 06:00:00 9.7 10 Nordeste 18 Norte 0 -- -- 91
2020-11-03 05:00:00 9.6 9 Nordeste 17 Nordeste 0 -- -- 95
2020-11-03 04:00:00 10.4 7 Este 17 Noroeste 0 -- -- 96
2020-11-03 03:00:00 10.4 12 Norte 26 Noroeste 0 -- -- 90
2020-11-03 02:00:00 10.9 19 Noroeste 31 Noroeste 0 -- -- 89
2020-11-03 01:00:00 12 16 Noroeste 25 Noroeste 0 -- -- 89
2020-11-03 00:00:00 12.7 10 Noroeste 14 Noroeste 0 -- -- 92
2020-11-02 23:00:00 12.6 13 Noroeste 27 Noroeste 0 -- -- 96
2020-11-02 22:00:00 14 7 Sur 12 Sudoeste 0 -- -- 91
2020-11-02 21:00:00 13.6 6 Sudoeste 10 Sudoeste 0 -- -- 92
2020-11-02 20:00:00 13.8 5 Sur 10 Sur 0 -- -- 90
2020-11-02 19:00:00 14.7 5 Sur 9 Sur 0 -- -- 86
2020-11-02 18:00:00 15.2 5 Sudoeste 23 Sudoeste 0 -- -- 84
2020-11-02 17:00:00 17.3 17 Sudoeste 27 Sudoeste 0 -- -- 74
2020-11-02 16:00:00 18 17 Sudoeste 26 Sudoeste 0 -- -- 73
2020-11-02 15:00:00 19.3 18 Sudoeste 26 Sudoeste 0 -- -- 66
2020-11-02 14:00:00 18.5 15 Sudoeste 23 Sudoeste 0 -- -- 72
2020-11-02 13:00:00 16.6 14 Sudoeste 20 Sudoeste 0 -- -- 85
2020-11-02 12:00:00 14.6 7 Sur 21 Oeste 0 -- -- 98
2020-11-02 11:00:00 13.3 10 Sudoeste 21 Sudoeste 0 -- -- 100
2020-11-02 10:00:00 11.8 10 Sudoeste 18 Sudoeste 0 -- -- 100
2020-11-02 09:00:00 11 4 Sudoeste 9 Sudoeste 0 -- -- 100
2020-11-02 08:00:00 10.3 3 Sudoeste 17 Sudoeste 0 -- -- 100
2020-11-02 07:00:00 10.6 10 Sudoeste 22 Sudoeste 0 -- -- 100
2020-11-02 06:00:00 11.6 15 Sudoeste 33 Sudoeste 0 -- -- 100
2020-11-02 05:00:00 11.6 23 Sudoeste 32 Sudoeste 0 -- -- 100
2020-11-02 04:00:00 11.7 18 Sudoeste 25 Sudoeste 0 -- -- 100
2020-11-02 03:00:00 11.9 15 Sudoeste 22 Sudoeste 0 -- -- 100
2020-11-02 02:00:00 11.3 15 Sudoeste 22 Sudoeste 0 -- -- 100
2020-11-02 01:00:00 11.8 17 Sudoeste 21 Sudoeste 0 -- -- 100
2020-11-02 00:00:00 11.5 12 Sudoeste 17 Sudoeste 0 -- -- 99
2020-11-01 23:00:00 12 12 Sudoeste 22 Sudoeste 0 -- -- 98
2020-11-01 22:00:00 12.3 13 Sudoeste 18 Sudoeste 0 -- -- 99
2020-11-01 21:00:00 12.1 10 Sudoeste 14 Sudoeste 0 -- -- 98
2020-11-01 20:00:00 11.8 10 Oeste 14 Sudoeste 0 -- -- 98
2020-11-01 19:00:00 13.5 8 Sudoeste 13 Sudoeste 0 -- -- 94
2020-11-01 18:00:00 15.6 8 Sudoeste 20 Sudoeste 0 -- -- 87
2020-11-01 17:00:00 16.7 15 Sudoeste 22 Sudoeste 0 -- -- 81
2020-11-01 16:00:00 17.5 14 Sudoeste 25 Sudoeste 0 -- -- 78
2020-11-01 15:00:00 16.9 13 Sudoeste 24 Oeste 0 -- -- 79
2020-11-01 14:00:00 16.6 13 Sudoeste 19 Sudoeste 0 -- -- 79
2020-11-01 13:00:00 13.5 11 Sudoeste 15 Oeste 0 -- -- 96
2020-11-01 12:00:00 12.7 9 Sudoeste 13 Sudoeste 0 -- -- 100
2020-11-01 11:00:00 11.6 5 Sudoeste 10 Sudoeste 0 -- -- 100
2020-11-01 10:00:00 10.2 4 Sur 7 Sur 0 -- -- 100
2020-11-01 09:00:00 9.5 0 Calma 7 Sudeste 0 -- -- 100
2020-11-01 08:00:00 8.1 0 Calma 8 Sudeste 0 -- -- 100
2020-11-01 07:00:00 7.6 0 Calma 6 Sudoeste 0 -- -- 100
2020-11-01 06:00:00 8.5 3 Sudoeste 12 Sudoeste 0 -- -- 100
2020-11-01 05:00:00 8 5 Sudoeste 14 Sudoeste 0 -- -- 100
2020-11-01 04:00:00 8.3 8 Sudoeste 13 Sudoeste 0 -- -- 100
2020-11-01 03:00:00 7.8 0 Calma 6 Oeste 0 -- -- 100
2020-11-01 02:00:00 8 4 Sur 10 Sur 0 -- -- 100
2020-11-01 01:00:00 8 3 Sur 8 Sur 0 -- -- 100
2020-11-01 00:00:00 7.2 0 Calma 5 Sudeste 0 -- -- 100
2020-10-31 23:00:00 6.8 4 Norte 7 Noroeste 0 -- -- 100
2020-10-31 22:00:00 7.1 0 Calma 5 Noroeste 0 -- -- 100
2020-10-31 21:00:00 7.1 0 Calma 4 Oeste 0 -- -- 99
2020-10-31 20:00:00 9 2 Oeste 6 Nordeste 0 -- -- 96
2020-10-31 19:00:00 11.3 3 Este 10 Nordeste 0 -- -- 95
2020-10-31 18:00:00 13.2 7 Nordeste 13 Nordeste 0 -- -- 90
2020-10-31 17:00:00 16.7 5 Noroeste 24 Sudoeste 0 -- -- 78
2020-10-31 16:00:00 18 16 Sudoeste 22 Sudoeste 0 -- -- 70
2020-10-31 15:00:00 13.6 9 Norte 21 Oeste 0 -- -- 88
2020-10-31 14:00:00 16.2 12 Oeste 22 Oeste 0 -- -- 78
2020-10-31 13:00:00 11.7 12 Oeste 16 Oeste 0 -- -- 99
2020-10-31 12:00:00 10.6 7 Sudoeste 13 Oeste 0 -- -- 100
2020-10-31 11:00:00 8.4 5 Noroeste 13 Noroeste 0 -- -- 100
2020-10-31 10:00:00 8 7 Oeste 12 Oeste 0 -- -- 100
2020-10-31 09:00:00 5.3 0 Calma 7 Sudeste 0 -- -- 100
2020-10-31 08:00:00 3.6 0 Calma 6 Sudoeste 0 -- -- 100
2020-10-31 07:00:00 3.9 0 Calma 4 Noroeste 0 -- -- 100
2020-10-31 06:00:00 3.7 0 Calma 8 Noroeste 0 -- -- 100
2020-10-31 05:00:00 2.9 0 Calma 4 Este 0 -- -- 100
2020-10-31 04:00:00 4.6 0 Calma 4 Noroeste 0 -- -- 100
2020-10-31 03:00:00 4.7 3 Este 5 Noroeste 0 -- -- 100
2020-10-31 02:00:00 5.7 0 Calma 3 Norte 0 -- -- 100
2020-10-31 01:00:00 5.6 0 Calma 2 Norte 0 -- -- 100
2020-10-31 00:00:00 5.8 0 Calma 2 Norte 0 -- -- 99
2020-10-30 23:00:00 6.1 0 Calma 3 Este 0 -- -- 100
2020-10-30 22:00:00 7.9 3 Norte 4 Norte 0 -- -- 99
2020-10-30 21:00:00 8.8 3 Noroeste 10 Sudeste 0 -- -- 97
2020-10-30 20:00:00 9.4 2 Norte 4 Norte 0 -- -- 97
2020-10-30 19:00:00 10.6 0 Calma 6 Sudoeste 0 -- -- 92
2020-10-30 18:00:00 17.3 3 Sur 12 Sudoeste 0 -- -- 69
2020-10-30 17:00:00 19.5 10 Sudoeste 15 Sudoeste 0 -- -- 60
2020-10-30 16:00:00 19 10 Sudoeste 16 Noroeste 0 -- -- 62
2020-10-30 15:00:00 17.1 7 Oeste 18 Sudoeste 0 -- -- 68
2020-10-30 14:00:00 16.7 6 Sudoeste 11 Sur 0 -- -- 69
2020-10-30 13:00:00 14.9 4 Noroeste 9 Nordeste 0 -- -- 72
2020-10-30 12:00:00 13.6 4 Sudeste 8 Sudeste 0 -- -- 79
2020-10-30 11:00:00 12.8 4 Sudeste 6 Sudeste 0 -- -- 80
2020-10-30 10:00:00 10.9 2 Sudeste 5 Este 0 -- -- 90
2020-10-30 09:00:00 5.9 2 Este 7 Sudeste 0 -- -- 100
2020-10-30 08:00:00 5 3 Sudeste 5 Sudeste 0 -- -- 100
2020-10-30 07:00:00 5.2 0 Calma 4 Este 0 -- -- 100
2020-10-30 06:00:00 4.6 0 Calma 4 Sudoeste 0 -- -- 100
2020-10-30 05:00:00 3.9 2 Norte 4 Norte 0 -- -- 100
2020-10-30 04:00:00 2.5 2 Noroeste 4 Noroeste 0 -- -- 100
2020-10-30 03:00:00 2.3 0 Calma -- -- 0 -- -- 100
2020-10-30 02:00:00 3.1 0 Calma 4 Norte 0 -- -- 100
2020-10-30 01:00:00 4.3 3 Norte 4 Norte 0 -- -- 100
2020-10-30 00:00:00 4.5 0 Calma 2 Nordeste 0 -- -- 100
2020-10-29 23:00:00 4.5 0 Calma 2 Norte 0 -- -- 99
2020-10-29 22:00:00 5.1 0 Calma 3 Norte 0 -- -- 99
2020-10-29 21:00:00 5.9 0 Calma 5 Norte 0 -- -- 98
2020-10-29 20:00:00 6.8 4 Norte 6 Noroeste 0 -- -- 98
2020-10-29 19:00:00 7.8 4 Noroeste 15 Oeste 0 -- -- 93
2020-10-29 18:00:00 12.1 9 Oeste 12 Oeste 0 -- -- 78
2020-10-29 17:00:00 14.8 7 Oeste 13 Sudoeste 0 -- -- 66
2020-10-29 16:00:00 15.7 7 Sudoeste 18 Oeste 0 -- -- 62
2020-10-29 15:00:00 14 10 Oeste 18 Oeste 0 -- -- 71
2020-10-29 14:00:00 13.6 8 Sudoeste 17 Sudoeste 0 -- -- 69
2020-10-29 13:00:00 14.2 8 Sudoeste 15 Sur 0 -- -- 68
2020-10-29 12:00:00 12 4 Sur 9 Sudoeste 0 -- -- 96
2020-10-29 11:00:00 7.5 3 Nordeste 6 Nordeste 0 -- -- 99
2020-10-29 10:00:00 6.2 3 Sudeste 6 Sudeste 0 -- -- 100
2020-10-29 09:00:00 4.8 3 Norte 5 Noroeste 0 -- -- 100
2020-10-29 08:00:00 4.7 2 Sur 7 Sudeste 0 -- -- 100
2020-10-29 07:00:00 4 0 Calma 5 Nordeste 0 -- -- 100
2020-10-29 06:00:00 4.5 0 Calma 6 Sudeste 0 -- -- 100
2020-10-29 05:00:00 2.6 0 Calma 4 Sur 0 -- -- 100
2020-10-29 04:00:00 3.8 0 Calma 9 Sur 0 -- -- 99
2020-10-29 03:00:00 4.4 4 Sudoeste 6 Sur 0 -- -- 100
2020-10-29 02:00:00 3.9 5 Sudoeste 9 Sur 0 -- -- 99
2020-10-29 01:00:00 4.6 0 Calma 6 Noroeste 0 -- -- 98
2020-10-29 00:00:00 5.4 3 Noroeste 10 Oeste 0 -- -- 97
2020-10-28 23:00:00 6.2 4 Oeste 13 Oeste 0 -- -- 96
2020-10-28 22:00:00 7.4 9 Oeste 17 Sudoeste 0 -- -- 95
2020-10-28 21:00:00 8.1 12 Sudoeste 20 Oeste 0 -- -- 93
2020-10-28 20:00:00 9.7 15 Sudoeste 20 Sudoeste 0 -- -- 89
2020-10-28 19:00:00 10.5 14 Sudoeste 19 Sudoeste 0 -- -- 87
2020-10-28 18:00:00 13.8 14 Sudoeste 26 Sudoeste 0 -- -- 74
2020-10-28 17:00:00 16.5 20 Sudoeste 37 Sudoeste 0 -- -- 63
2020-10-28 16:00:00 16.5 23 Sudoeste 39 Oeste 0 -- -- 62
2020-10-28 15:00:00 14.9 26 Oeste 35 Sudoeste 0 -- -- 70
2020-10-28 14:00:00 15.5 24 Sudoeste 37 Oeste 0 -- -- 71
2020-10-28 13:00:00 15.3 24 Oeste 34 Oeste 0 -- -- 72
2020-10-28 12:00:00 14 20 Oeste 30 Oeste 0 -- -- 81
2020-10-28 11:00:00 12.7 18 Oeste 25 Oeste 0 -- -- 88
2020-10-28 10:00:00 13 14 Oeste 22 Sudoeste 0 -- -- 89
2020-10-28 09:00:00 11.3 10 Oeste 21 Sudoeste 0 -- -- 99
2020-10-28 08:00:00 10.8 13 Oeste 28 Oeste 0 -- -- 100
2020-10-28 07:00:00 10.7 17 Sudoeste 26 Sudoeste 0 -- -- 99
2020-10-28 06:00:00 10.8 19 Sudoeste 27 Sudoeste 0 -- -- 99
2020-10-28 05:00:00 10.6 16 Sudoeste 28 Sudoeste 0 -- -- 99
2020-10-28 04:00:00 10.4 21 Sudoeste 34 Sudoeste 0 -- -- 99
2020-10-28 03:00:00 10.3 19 Sudoeste 37 Sudoeste 0 -- -- 99
2020-10-28 02:00:00 10.3 25 Sudoeste 38 Sudoeste 0 -- -- 97
2020-10-28 01:00:00 10.2 22 Sudoeste 41 Sudoeste 0.2 -- -- 97
2020-10-28 00:00:00 10.1 23 Sudoeste 33 Sudoeste 0 -- -- 97
2020-10-27 23:00:00 10.1 23 Sudoeste 34 Sudoeste 0 -- -- 97
2020-10-27 22:00:00 10.1 23 Sudoeste 32 Sudoeste 0 -- -- 96
2020-10-27 21:00:00 9.9 24 Sudoeste 33 Sudoeste 0 -- -- 98
2020-10-27 20:00:00 9.6 23 Sudoeste 40 Sudoeste 0 -- -- 98
2020-10-27 19:00:00 9.8 29 Sudoeste 39 Sudoeste 0 -- -- 95
2020-10-27 18:00:00 9.8 23 Sudoeste 37 Sudoeste 0.2 -- -- 95
2020-10-27 17:00:00 9.8 22 Sudoeste 37 Sudoeste 0.6 -- -- 96
2020-10-27 16:00:00 11.8 28 Sudoeste 42 Sudoeste 0 -- -- 81
2020-10-27 15:00:00 11.6 25 Sudoeste 40 Sudoeste 0 -- -- 80
2020-10-27 14:00:00 11.4 26 Sudoeste 38 Sudoeste 0 -- -- 80
2020-10-27 13:00:00 11.2 28 Sudoeste 40 Oeste 0 -- -- 80
2020-10-27 12:00:00 10.1 23 Sudoeste 42 Sudoeste 0 -- -- 84
2020-10-27 11:00:00 8.9 25 Sudoeste 46 Sudoeste 0 -- -- 90
2020-10-27 10:00:00 7.9 23 Sudoeste 33 Sudoeste 0 -- -- 94
2020-10-27 09:00:00 6.9 21 Sudoeste 31 Sudoeste 0 -- -- 97
2020-10-27 08:00:00 6.3 19 Sudoeste 27 Sudoeste 0 -- -- 97
2020-10-27 07:00:00 6.1 19 Sudoeste 27 Sudoeste 0 -- -- 97
2020-10-27 06:00:00 5.8 19 Sudoeste 31 Oeste 0 -- -- 97
2020-10-27 05:00:00 6 23 Sudoeste 33 Oeste 0 -- -- 97
2020-10-27 04:00:00 5.6 18 Oeste 25 Sudoeste 0 -- -- 98
2020-10-27 03:00:00 5.3 16 Sudoeste 28 Sudoeste 0 -- -- 98
2020-10-27 02:00:00 5.1 19 Sudoeste 26 Sudoeste 0 -- -- 98
2020-10-27 01:00:00 4.6 14 Sudoeste 23 Oeste 0 -- -- 96
2020-10-27 00:00:00 5.3 18 Sudoeste 25 Sudoeste 0 -- -- 94